Latest Weather Observations for Launceston Airport

IDT60801

Issued at 1:05 pm EDT Sunday 26 October 2014 (issued every 30 minutes, with the page automatically refreshed every 10 minutes)

About weather observations | Map of weather stations | Latest weather observations for TAS | Other Formats
Station Details ID: 091311 Name: LAUNCESTON AIRPORT Lat: -41.55 Lon: 147.21 Height: 166.9 m
Data from the previous 72 hours. | See also: Recent months at Launceston Airport
Date/Time
EDT
Temp
°C
App
Temp
°C
Dew
Point
Rel
Hum
%
Delta-T
°C
Wind Press
QNH
hPa
Press
MSL
hPa
Rain
since 9 am
mm
Dir
 
Spd
km/h
Gust
km/h
Spd
kts
Gust
kts
26/01:00pm 16.5 14.8 12.5 77 2.2 SSW 13 17 7 9 1012.6 1012.6 0.4
26/12:30pm 15.1 13.5 11.5 79 1.9 SW 11 17 6 9 1012.7 1012.7 0.4
26/12:00pm 15.4 13.7 12.5 83 1.6 SSW 13 17 7 9 1013.0 1013.0 0.4
26/11:30am 14.1 12.0 11.3 83 1.5 SSE 13 19 7 10 1013.5 1013.6 0.4
26/11:04am 12.9 10.9 11.5 91 0.7 S 13 17 7 9 1013.7 1013.8 0.4
26/11:00am 12.8 10.8 11.5 92 0.7 S 13 19 7 10 1013.8 1013.9 0.4
26/10:48am 12.4 9.9 11.1 92 0.7 S 15 19 8 10 1013.9 1014.0 0.4
26/10:46am 12.6 10.2 11.5 93 0.6 S 15 19 8 10 1013.9 1014.0 0.4
26/10:37am 12.3 9.8 11.2 93 0.6 S 15 19 8 10 1013.9 1014.0 0.4
26/10:30am 12.2 9.7 11.1 93 0.6 S 15 17 8 9 1013.9 1014.0 0.4
26/10:00am 12.3 10.5 10.7 90 0.8 S 11 15 6 8 1013.9 1014.0 0.0
26/09:46am 12.7 11.2 10.4 86 1.2 SSE 9 11 5 6 1013.9 1014.0 0.0
26/09:38am 12.6 10.9 10.0 84 1.3 SSE 9 13 5 7 1013.8 1013.9 0.0
26/09:30am 12.8 10.8 10.2 84 1.4 SSE 11 15 6 8 1014.0 1014.1 0.0
26/09:00am 12.1 9.6 9.8 86 1.2 S 13 20 7 11 1014.0 1014.1 0.0
26/08:30am 11.8 9.0 9.9 88 1.0 S 15 17 8 9 1013.6 1013.7 0.0
26/08:00am 11.9 9.0 9.8 87 1.1 S 15 17 8 9 1013.7 1013.8 0.0
26/07:30am 10.9 7.0 9.3 90 0.8 S 20 24 11 13 1013.6 1013.7 0.0
26/07:00am 10.6 6.8 9.2 91 0.7 S 19 28 10 15 1013.4 1013.5 0.0
26/06:30am 10.2 7.1 9.0 92 0.6 SSE 15 19 8 10 1013.3 1013.4 0.0
26/06:01am 10.5 7.8 9.1 91 0.7 SSE 13 17 7 9 1013.6 1013.7 0.0
26/06:00am 10.5 7.8 9.1 91 0.7 SSE 13 17 7 9 1013.7 1013.8 0.0
26/05:31am 10.6 8.4 9.4 92 0.6 SSE 11 17 6 9 1013.7 1013.8 0.0
26/05:30am 10.6 8.4 9.4 92 0.6 SSE 11 17 6 9 1013.7 1013.8 0.0
26/05:00am 10.7 8.9 9.6 93 0.6 S 9 13 5 7 1013.7 1013.8 0.0
26/04:30am 10.7 8.6 9.6 93 0.6 S 11 13 6 7 1013.7 1013.8 0.0
26/04:00am 10.5 8.0 9.6 94 0.5 SSW 13 15 7 8 1013.9 1014.0 0.0
26/03:30am 10.5 7.9 9.4 93 0.6 SSW 13 15 7 8 1013.7 1013.8 0.0
26/03:00am 10.5 8.7 9.4 93 0.6 SSE 9 11 5 6 1013.5 1013.6 0.0
26/02:30am 10.6 8.8 9.4 92 0.6 SSE 9 13 5 7 1014.3 1014.4 0.0
26/02:28am 10.7 8.9 9.5 92 0.6 SE 9 13 5 7 1014.3 1014.4 0.0
26/02:00am 11.1 8.6 9.7 91 0.7 SSE 13 17 7 9 1015.6 1015.7 0.0
26/01:30am 11.4 9.4 10.0 91 0.7 S 11 15 6 8 1016.1 1016.2 0.0
26/01:25am 11.4 9.4 10.0 91 0.7 S 11 15 6 8 1016.0 1016.1 0.0
26/01:00am 11.5 9.1 9.9 90 0.8 S 13 17 7 9 1016.3 1016.4 0.0
26/12:30am 11.6 9.2 10.2 91 0.7 S 13 17 7 9 1016.3 1016.4 0.0
26/12:00am 11.8 9.4 10.2 90 0.8 S 13 19 7 10 1016.2 1016.3 0.0
 
Date/Time
EDT
Temp
°C
App
Temp
°C
Dew
Point
Rel
Hum
%
Delta-T
°C
Wind Press
QNH
hPa
Press
MSL
hPa
Rain
since 9 am
mm
Dir
 
Spd
km/h
Gust
km/h
Spd
kts
Gust
kts
25/11:30pm 12.2 9.5 10.4 89 0.9 S 15 19 8 10 1015.8 1015.9 0.0
25/11:00pm 12.6 10.4 10.8 89 0.9 S 13 15 7 8 1016.1 1016.2 0.0
25/10:30pm 12.9 11.5 11.0 88 1.0 S 9 13 5 7 1016.2 1016.3 0.0
25/10:00pm 13.3 11.9 11.0 86 1.2 SSE 9 11 5 6 1016.1 1016.2 0.0
25/09:30pm 14.4 12.8 11.4 82 1.6 N 11 15 6 8 1016.3 1016.4 0.0
25/09:00pm 14.9 12.3 10.7 76 2.2 NNW 15 20 8 11 1016.3 1016.4 0.0
25/08:30pm 15.0 13.0 11.6 80 1.8 NNW 13 17 7 9 1015.9 1016.0 0.0
25/08:00pm 15.1 12.3 11.3 78 2.0 NNW 17 20 9 11 1015.5 1015.6 0.0
25/07:30pm 15.6 12.2 11.4 76 2.3 N 20 30 11 16 1015.1 1015.2 0.0
25/07:00pm 16.1 11.7 11.7 75 2.4 N 26 35 14 19 1014.5 1014.6 0.0
25/06:30pm 17.3 12.2 11.8 70 3.0 N 30 39 16 21 1014.1 1014.2 0.0
25/06:00pm 18.1 13.2 11.4 65 3.7 N 28 35 15 19 1013.9 1014.0 0.0
25/05:30pm 18.7 13.4 11.3 62 4.1 NNW 30 39 16 21 1013.9 1014.0 0.0
25/05:00pm 19.3 13.4 11.3 60 4.4 NNW 33 41 18 22 1013.7 1013.8 0.0
25/04:30pm 20.1 14.4 11.3 57 4.9 NNW 32 39 17 21 1013.8 1013.9 0.0
25/04:00pm 20.9 16.6 12.1 57 5.0 NNW 26 32 14 17 1013.7 1013.8 0.0
25/03:30pm 21.1 17.6 13.3 61 4.5 NNW 24 30 13 16 1013.5 1013.6 0.0
25/03:16pm 21.0 18.0 12.7 59 4.7 NNW 20 28 11 15 1013.5 1013.6 0.0
25/03:00pm 20.9 18.6 11.8 56 5.1 NW 15 20 8 11 1013.4 1013.5 0.0
25/02:56pm 21.1 18.8 10.6 51 5.8 NW 13 20 7 11 1013.4 1013.5 0.0
25/02:30pm 21.7 19.0 10.5 49 6.2 NW 15 22 8 12 1013.6 1013.7 0.0
25/02:00pm 21.2 19.1 9.8 48 6.2 WNW 11 20 6 11 1013.9 1014.0 0.0
25/01:30pm 21.7 20.1 11.4 52 5.8 SW 11 15 6 8 1014.3 1014.4 0.0
25/01:00pm 21.4 20.6 9.6 47 6.4 S 4 11 2 6 1014.1 1014.2 0.0
25/12:30pm 21.0 20.3 9.9 49 6.0 ENE 4 11 2 6 1014.5 1014.6 0.0
25/12:00pm 20.4 19.1 9.3 49 5.9 SSE 6 11 3 6 1014.7 1014.8 0.0
25/11:30am 19.8 18.0 9.4 51 5.6 S 9 20 5 11 1014.9 1015.0 0.0
25/11:00am 19.2 17.4 9.4 53 5.2 SSE 9 13 5 7 1015.2 1015.3 0.0
25/10:30am 18.3 17.1 10.4 60 4.3 SSW 7 13 4 7 1015.2 1015.3 0.0
25/10:00am 17.9 16.2 9.8 59 4.3 S 9 13 5 7 1015.0 1015.1 0.0
25/09:30am 17.3 17.5 12.0 71 2.9 SSE 2 7 1 4 1014.8 1014.9 0.0
25/09:00am 16.3 15.8 11.9 75 2.4 E 6 7 3 4 1014.8 1014.9 0.0
25/08:30am 14.4 13.4 12.3 87 1.1 S 9 11 5 6 1014.6 1014.7 0.0
25/08:11am 13.5 12.7 12.9 96 0.3 SSE 9 11 5 6 1014.5 1014.6 0.0
25/08:06am 13.1 12.6 12.6 97 0.3 S 7 11 4 6 1014.4 1014.5 0.0
25/08:00am 12.6 11.9 12.1 97 0.3 S 7 11 4 6 1014.3 1014.4 0.0
25/07:47am 12.2 9.9 11.7 97 0.3 S 15 19 8 10 1014.0 1014.1 0.0
25/07:37am 12.3 10.4 11.8 97 0.3 S 13 19 7 10 1013.9 1014.0 0.0
25/07:30am 12.4 10.9 11.9 97 0.3 S 11 13 6 7 1013.7 1013.8 0.0
25/07:07am 12.0 11.1 11.5 97 0.3 SSE 7 13 4 7 1013.4 1013.5 0.0
25/07:01am 12.2 11.0 11.7 97 0.3 S 9 11 5 6 1013.2 1013.3 0.0
25/07:00am 12.1 10.9 11.6 97 0.3 S 9 11 5 6 1013.2 1013.3 0.0
25/06:45am 11.6 10.6 11.1 97 0.3 S 7 13 4 7 1012.9 1012.9 0.0
25/06:39am 11.3 9.9 10.8 97 0.3 SSW 9 13 5 7 1012.8 1012.8 0.0
25/06:33am 11.1 9.6 10.6 97 0.3 SSW 9 13 5 7 1012.7 1012.7 0.0
25/06:30am 11.1 9.6 10.6 97 0.3 SSW 9 13 5 7 1012.7 1012.7 0.0
25/06:17am 11.1 10.0 10.6 97 0.3 S 7 9 4 5 1012.5 1012.5 0.0
25/06:00am 12.4 12.2 11.9 97 0.3 ESE 4 7 2 4 1012.2 1012.2 0.0
25/05:30am 11.4 11.3 10.8 96 0.3 ESE 2 6 1 3 1012.1 1012.1 0.0
25/05:00am 12.4 13.0 11.8 96 0.3 CALM 0 0 0 0 1011.7 1011.8 0.0
25/04:30am 12.4 13.0 11.8 96 0.3 CALM 0 0 0 0 1011.5 1011.6 0.0
25/04:09am 12.7 12.2 12.1 96 0.3 N 6 9 3 5 1011.2 1011.3 0.0
25/04:00am 12.8 11.8 12.2 96 0.3 N 9 11 5 6 1011.1 1011.2 0.0
25/03:49am 13.3 12.8 12.7 96 0.3 N 7 11 4 6 1011.0 1011.1 0.0
25/03:37am 13.3 12.4 12.7 96 0.3 N 9 11 5 6 1010.9 1011.0 0.0
25/03:30am 13.4 12.2 12.8 96 0.3 NNW 11 13 6 7 1011.0 1011.1 0.0
25/03:00am 13.3 11.7 12.7 96 0.3 NNW 13 17 7 9 1010.7 1010.8 0.0
25/02:58am 13.3 11.7 12.7 96 0.3 NNW 13 17 7 9 1010.7 1010.8 0.0
25/02:54am 13.4 11.4 12.8 96 0.3 NNW 15 17 8 9 1010.6 1010.7 0.0
25/02:30am 13.7 12.2 13.1 96 0.3 N 13 17 7 9 1010.3 1010.4 0.0
25/02:00am 13.7 12.2 13.1 96 0.3 N 13 17 7 9 1010.1 1010.2 0.0
25/01:30am 14.0 12.9 13.2 95 0.4 N 11 15 6 8 1010.6 1010.7 0.0
25/01:20am 13.5 11.8 12.6 94 0.5 N 13 15 7 8 1010.5 1010.6 0.0
25/01:00am 14.5 12.8 13.7 95 0.5 NNW 15 20 8 11 1010.6 1010.7 0.0
25/12:36am 14.5 12.8 13.7 95 0.5 N 15 19 8 10 1010.2 1010.3 0.0
25/12:32am 14.5 12.8 13.7 95 0.5 N 15 17 8 9 1010.2 1010.3 0.0
25/12:30am 14.5 13.2 13.7 95 0.5 N 13 17 7 9 1010.2 1010.3 0.0
25/12:10am 14.5 13.5 13.5 94 0.6 NNW 11 15 6 8 1010.2 1010.3 0.0
25/12:00am 14.6 13.7 13.8 95 0.5 NW 11 15 6 8 1010.3 1010.4 0.0
 
Date/Time
EDT
Temp
°C
App
Temp
°C
Dew
Point
Rel
Hum
%
Delta-T
°C
Wind Press
QNH
hPa
Press
MSL
hPa
Rain
since 9 am
mm
Dir
 
Spd
km/h
Gust
km/h
Spd
kts
Gust
kts
24/11:30pm 13.5 12.5 12.4 93 0.6 N 9 11 5 6 1010.1 1010.2 0.0
24/11:25pm 13.4 12.4 12.3 93 0.6 N 9 11 5 6 1010.0 1010.1 0.0
24/11:12pm 13.8 12.9 12.7 93 0.6 N 9 11 5 6 1010.2 1010.3 0.0
24/11:00pm 13.9 13.4 12.6 92 0.7 NNW 7 9 4 5 1010.2 1010.3 0.0
24/10:30pm 13.9 13.0 12.6 92 0.7 N 9 11 5 6 1010.3 1010.4 0.0
24/10:00pm 13.9 13.4 12.5 91 0.8 N 7 9 4 5 1010.7 1010.8 0.0
24/09:30pm 14.6 13.9 13.1 91 0.8 WNW 9 13 5 7 1010.7 1010.8 0.0
24/09:10pm 14.1 13.6 12.8 92 0.7 WNW 7 11 4 6 1010.7 1010.8 0.0
24/09:00pm 12.9 13.3 11.3 90 0.9 CALM 0 0 0 0 1010.5 1010.6 0.0
24/08:30pm 14.3 15.0 12.2 87 1.1 CALM 0 0 0 0 1010.2 1010.3 0.0
24/08:03pm 14.7 15.5 12.4 86 1.3 CALM 0 0 0 0 1010.0 1010.1 0.0
24/08:00pm 14.8 15.6 12.5 86 1.3 CALM 0 0 0 0 1010.0 1010.1 0.0
24/07:30pm 15.2 15.7 12.7 85 1.4 NE 2 6 1 3 1010.0 1010.1 0.0
24/07:00pm 15.2 13.9 12.5 84 1.5 W 11 15 6 8 1010.0 1010.1 0.0
24/06:45pm 15.3 13.2 12.4 83 1.6 W 15 19 8 10 1010.2 1010.3 0.0
24/06:30pm 15.6 13.9 12.5 82 1.7 W 13 19 7 10 1010.2 1010.3 0.0
24/06:00pm 15.8 13.6 12.2 79 2.0 W 15 20 8 11 1010.4 1010.5 0.0
24/05:30pm 16.4 15.2 12.8 79 2.0 SW 11 15 6 8 1010.1 1010.2 0.0
24/05:00pm 16.4 15.1 12.4 77 2.2 S 11 13 6 7 1010.3 1010.4 0.0
24/04:30pm 16.4 15.5 12.6 78 2.1 SW 9 13 5 7 1011.0 1011.1 0.0
24/04:00pm 15.6 12.6 12.0 79 2.0 WSW 19 24 10 13 1011.7 1011.8 0.0
24/03:30pm 16.4 13.8 12.0 75 2.4 SSW 17 20 9 11 1011.6 1011.7 0.0
24/03:00pm 15.8 13.2 10.8 72 2.7 SSW 15 20 8 11 1012.1 1012.1 0.0
24/02:30pm 16.0 13.5 11.0 72 2.7 SSW 15 20 8 11 1012.9 1012.9 0.0
24/02:00pm 15.5 13.5 10.3 71 2.8 SSW 11 15 6 8 1013.5 1013.6 0.0
24/01:30pm 14.9 12.5 9.9 72 2.6 SSW 13 15 7 8 1014.2 1014.3 0.0
24/01:00pm 14.0 10.9 9.0 72 2.6 SW 15 20 8 11 1015.0 1015.1 0.0
24/12:30pm 13.5 10.4 8.8 73 2.4 SW 15 20 8 11 1015.4 1015.5 0.0
24/12:00pm 13.4 10.6 8.5 72 2.5 SW 13 17 7 9 1016.0 1016.1 0.0
24/11:30am 13.0 9.4 8.5 74 2.3 SW 17 24 9 13 1016.5 1016.6 0.0
24/11:00am 12.7 9.2 8.6 76 2.1 SW 17 22 9 12 1016.9 1017.0 0.0
24/10:30am 12.0 8.3 8.1 77 1.9 SW 17 20 9 11 1017.2 1017.3 0.0
24/10:00am 11.5 8.0 7.2 75 2.1 SW 15 22 8 12 1017.7 1017.8 0.0
24/09:30am 11.2 7.3 6.9 75 2.1 S 17 20 9 11 1018.0 1018.1 0.0
24/09:00am 10.5 5.9 6.5 76 1.9 S 20 26 11 14 1018.5 1018.6 0.0
24/08:30am 9.7 5.0 6.1 78 1.7 S 20 24 11 13 1019.2 1019.3 0.0
24/08:00am 8.8 4.6 5.5 80 1.5 S 17 22 9 12 1019.6 1019.7 0.0
24/07:30am 6.8 2.3 4.3 84 1.1 SSW 17 22 9 12 1020.0 1020.1 0.0
24/07:00am 6.4 1.8 3.9 84 1.1 SSW 17 20 9 11 1020.3 1020.4 0.0
24/06:30am 6.6 1.5 4.1 84 1.1 S 20 26 11 14 1020.2 1020.3 0.0
24/06:00am 5.9 0.7 3.6 85 1.0 S 20 24 11 13 1020.1 1020.2 0.0
24/05:30am 5.4 0.2 3.3 86 0.9 S 20 24 11 13 1020.6 1020.7 0.0
24/05:00am 4.5 0.4 2.5 87 0.8 S 13 17 7 9 1020.8 1020.9 0.0
24/04:30am 5.1 1.9 2.8 85 0.9 S 9 13 5 7 1021.3 1021.4 0.0
24/04:00am 5.3 1.0 3.0 85 1.0 S 15 19 8 10 1021.5 1021.6 0.0
24/03:30am 4.7 0.7 2.7 87 0.8 S 13 17 7 9 1021.9 1022.0 0.0
24/03:00am 5.0 0.6 2.7 85 0.9 S 15 20 8 11 1022.1 1022.2 0.0
24/02:30am 5.5 0.4 2.8 83 1.1 S 19 22 10 12 1022.3 1022.4 0.0
24/02:00am 5.4 0.7 2.9 84 1.0 S 17 20 9 11 1022.9 1023.0 0.0
24/01:30am 5.8 1.5 3.1 83 1.1 S 15 19 8 10 1023.1 1023.2 0.0
24/01:00am 5.9 2.0 3.2 83 1.1 S 13 15 7 8 1023.6 1023.8 0.0
24/12:30am 6.4 1.7 3.2 80 1.4 S 17 20 9 11 1023.6 1023.8 0.0
24/12:00am 6.7 1.5 3.3 79 1.4 S 20 28 11 15 1023.7 1023.9 0.0
 
Date/Time
EDT
Temp
°C
App
Temp
°C
Dew
Point
Rel
Hum
%
Delta-T
°C
Wind Press
QNH
hPa
Press
MSL
hPa
Rain
since 9 am
mm
Dir
 
Spd
km/h
Gust
km/h
Spd
kts
Gust
kts
23/11:30pm 7.6 2.4 3.8 77 1.6 S 20 28 11 15 1023.9 1024.1 0.0
23/11:00pm 7.5 2.9 3.9 78 1.6 S 17 22 9 12 1023.8 1024.0 0.0
23/10:30pm 8.2 2.7 4.2 76 1.8 SSE 22 28 12 15 1024.0 1024.2 0.0
23/10:00pm 8.7 3.3 4.3 74 1.9 SSE 22 30 12 16 1024.2 1024.4 0.0
23/09:30pm 9.6 3.4 4.4 70 2.3 SSE 26 35 14 19 1024.2 1024.4 0.0
23/09:00pm 9.9 4.1 4.3 68 2.5 SSE 24 32 13 17 1023.8 1024.0 0.0
23/08:30pm 10.4 6.0 4.5 67 2.7 SE 17 26 9 14 1023.7 1023.9 0.0
23/08:00pm 11.2 5.8 4.7 64 3.0 SSE 22 35 12 19 1023.1 1023.2 0.0
23/07:30pm 12.8 6.7 5.0 59 3.6 SSE 26 35 14 19 1022.6 1022.7 0.0
23/07:00pm 14.3 7.9 5.1 54 4.3 SSE 28 35 15 19 1022.2 1022.3 0.0
23/06:30pm 15.6 9.2 5.2 50 5.0 SSE 28 33 15 18 1022.1 1022.2 0.0
23/06:00pm 16.8 9.8 6.0 49 5.3 SSE 32 41 17 22 1021.9 1022.0 0.0
23/05:30pm 18.1 11.6 6.3 46 5.9 SSE 30 41 16 22 1021.8 1021.9 0.0
23/05:00pm 18.7 13.0 6.5 45 6.1 SSE 26 35 14 19 1021.7 1021.8 0.0
23/04:30pm 18.7 12.3 5.2 41 6.6 SSE 28 39 15 21 1021.8 1021.9 0.0
23/04:00pm 18.6 11.7 4.8 40 6.7 S 30 41 16 22 1021.9 1022.0 0.0
23/03:30pm 18.7 12.0 5.5 42 6.5 SSE 30 41 16 22 1022.0 1022.1 0.0
23/03:00pm 18.8 11.4 3.8 37 7.1 SSE 32 41 17 22 1022.2 1022.3 0.0
23/02:30pm 19.4 12.5 2.7 33 7.8 SSE 28 37 15 20 1022.3 1022.4 0.0
23/02:00pm 19.1 12.4 3.7 36 7.3 SSE 28 37 15 20 1022.5 1022.6 0.0
23/01:30pm 18.5 11.0 4.3 39 6.8 SSE 33 43 18 23 1022.5 1022.6 0.0

Other Formats:

Comma delimited format used in spreadsheet applications
http://www.bom.gov.au/fwo/IDT60801/IDT60801.95966.axf

JavaScript Object Notation format (JSON) in row-major order
http://www.bom.gov.au/fwo/IDT60801/IDT60801.95966.json